sensor_id;sensor_type;location;lat;lon;timestamp;pressure;altitude;pressure_sealevel;temperature;humidity
60646;BME280;46462;32.608;-117.032;2023-02-14T00:00:13;99339.82;;;25.04;36.24
60646;BME280;46462;32.608;-117.032;2023-02-14T00:02:43;99346.87;;;25.38;35.01
60646;BME280;46462;32.608;-117.032;2023-02-14T00:05:14;99362.16;;;25.44;34.83
60646;BME280;46462;32.608;-117.032;2023-02-14T00:07:45;99364.73;;;25.43;35.39
60646;BME280;46462;32.608;-117.032;2023-02-14T00:10:15;99358.59;;;25.07;36.09
60646;BME280;46462;32.608;-117.032;2023-02-14T00:12:46;99358.00;;;25.13;36.29
60646;BME280;46462;32.608;-117.032;2023-02-14T00:15:18;99360.86;;;24.98;36.82
60646;BME280;46462;32.608;-117.032;2023-02-14T00:17:47;99369.63;;;24.97;36.82
60646;BME280;46462;32.608;-117.032;2023-02-14T00:20:19;99377.14;;;24.84;37.41
60646;BME280;46462;32.608;-117.032;2023-02-14T00:22:49;99383.84;;;24.54;38.01
60646;BME280;46462;32.608;-117.032;2023-02-14T00:25:20;99387.54;;;24.47;37.99
60646;BME280;46462;32.608;-117.032;2023-02-14T00:27:50;99387.79;;;24.56;38.12
60646;BME280;46462;32.608;-117.032;2023-02-14T00:30:21;99390.81;;;24.56;38.22
60646;BME280;46462;32.608;-117.032;2023-02-14T00:32:52;99388.51;;;24.64;37.65
60646;BME280;46462;32.608;-117.032;2023-02-14T00:35:22;99387.59;;;24.93;36.54
60646;BME280;46462;32.608;-117.032;2023-02-14T00:37:53;99387.72;;;25.24;35.66
60646;BME280;46462;32.608;-117.032;2023-02-14T00:40:23;99388.79;;;25.27;35.63
60646;BME280;46462;32.608;-117.032;2023-02-14T00:42:54;99384.69;;;25.12;35.93
60646;BME280;46462;32.608;-117.032;2023-02-14T00:45:25;99378.08;;;25.01;36.28
60646;BME280;46462;32.608;-117.032;2023-02-14T00:47:55;99371.62;;;24.61;37.57
60646;BME280;46462;32.608;-117.032;2023-02-14T00:50:26;99371.12;;;25.00;36.36
60646;BME280;46462;32.608;-117.032;2023-02-14T00:52:57;99375.77;;;24.97;36.35
60646;BME280;46462;32.608;-117.032;2023-02-14T00:55:27;99375.94;;;24.80;36.46
60646;BME280;46462;32.608;-117.032;2023-02-14T00:57:58;99375.12;;;24.80;36.43
60646;BME280;46462;32.608;-117.032;2023-02-14T01:00:29;99370.49;;;24.82;36.37
60646;BME280;46462;32.608;-117.032;2023-02-14T01:02:59;99361.23;;;24.55;36.98
60646;BME280;46462;32.608;-117.032;2023-02-14T01:05:30;99362.42;;;24.50;37.21
60646;BME280;46462;32.608;-117.032;2023-02-14T01:08:01;99367.62;;;24.60;37.00
60646;BME280;46462;32.608;-117.032;2023-02-14T01:10:31;99371.91;;;24.57;37.02
60646;BME280;46462;32.608;-117.032;2023-02-14T01:13:03;99366.40;;;24.68;36.74
60646;BME280;46462;32.608;-117.032;2023-02-14T01:15:37;99364.15;;;24.60;36.85
60646;BME280;46462;32.608;-117.032;2023-02-14T01:18:04;99364.56;;;24.62;36.94
60646;BME280;46462;32.608;-117.032;2023-02-14T01:20:34;99360.75;;;24.59;36.93
60646;BME280;46462;32.608;-117.032;2023-02-14T01:23:04;99360.85;;;24.61;36.95
60646;BME280;46462;32.608;-117.032;2023-02-14T01:25:36;99364.62;;;24.47;37.14
60646;BME280;46462;32.608;-117.032;2023-02-14T01:28:06;99370.65;;;24.32;37.45
60646;BME280;46462;32.608;-117.032;2023-02-14T01:30:36;99371.11;;;24.30;37.51
60646;BME280;46462;32.608;-117.032;2023-02-14T01:33:07;99370.97;;;24.03;38.06
60646;BME280;46462;32.608;-117.032;2023-02-14T01:35:37;99371.67;;;24.09;37.96
60646;BME280;46462;32.608;-117.032;2023-02-14T01:38:08;99380.87;;;23.89;38.22
60646;BME280;46462;32.608;-117.032;2023-02-14T01:40:42;99380.11;;;23.74;38.79
60646;BME280;46462;32.608;-117.032;2023-02-14T01:43:13;99379.26;;;23.61;38.88
60646;BME280;46462;32.608;-117.032;2023-02-14T01:45:39;99375.28;;;23.45;39.44
60646;BME280;46462;32.608;-117.032;2023-02-14T01:48:10;99374.63;;;23.51;39.30
60646;BME280;46462;32.608;-117.032;2023-02-14T01:50:43;99377.81;;;23.72;38.77
60646;BME280;46462;32.608;-117.032;2023-02-14T01:53:13;99382.78;;;23.64;39.04
60646;BME280;46462;32.608;-117.032;2023-02-14T01:55:43;99385.21;;;23.63;39.15
60646;BME280;46462;32.608;-117.032;2023-02-14T01:58:16;99387.90;;;23.73;38.84
60646;BME280;46462;32.608;-117.032;2023-02-14T02:00:43;99389.21;;;23.30;39.74
60646;BME280;46462;32.608;-117.032;2023-02-14T02:03:13;99395.42;;;23.60;39.12
60646;BME280;46462;32.608;-117.032;2023-02-14T02:05:47;99400.86;;;23.51;39.26
60646;BME280;46462;32.608;-117.032;2023-02-14T02:08:14;99407.43;;;23.41;39.42
60646;BME280;46462;32.608;-117.032;2023-02-14T02:10:45;99418.15;;;23.14;40.29
60646;BME280;46462;32.608;-117.032;2023-02-14T02:13:17;99414.67;;;23.36;39.65
60646;BME280;46462;32.608;-117.032;2023-02-14T02:15:52;99414.14;;;23.28;40.01
60646;BME280;46462;32.608;-117.032;2023-02-14T02:18:22;99414.41;;;23.16;40.21
60646;BME280;46462;32.608;-117.032;2023-02-14T02:21:04;99418.03;;;23.30;39.91
